Wilmington, New York
Current Conditions -  °F | °C
As of 4:51 AM on Tuesday 21 Oct 2014 (Local Time) from KSLK Reporting Station
Light Rain Light Rain  
Wind Chill: 40°   Ceiling: 4300
Heat Index: 40°   Visibility: 7mi
Dew Point: 38°   Wind: 0mph
Humidity: 93%   Direction: NA
Pressure: 29.87"   Gusts: NA
Location:  44.39°N, 73.82°W
Report Text: KSLK 210851Z AUTO 00000KT 7SM -RA SCT036 OVC043 04/03 A2987 RMK AO2 SLP124 P0004 60005 T00440033 53000 $
Loading
Personal Weather Stations






























Interactive Weather Map
Tropical Storm Tracking
New forecast layout! Learn more

10-Day Weather Forecast

Advertisements
Track Severe Weather on mobile